Pagina principale
METAR-TAF:

METAR-TAF

Aeroporti :

Viterbo, Italia

Aeroporto di Viterbo

latitudine: 42-26N, longitudine: 012-03E, altezza: 300 m

Osservazione

Il bollettino è stato emesso 39 minuti fa, alle 09:55 UTC
Vento 5 kt da ovest/sud-ovest, variando fra sud e nord-ovest
Temperature 20°C
Umidità 53%
Pressione 1020 hPa
Visibilità 10 km o più
Poco nuvoloso ad un'altezza di 2500 ft

METAR: LIRV 210955Z 25005KT 190V310 9999 FEW025 20/10 Q1020 RMK FEW MON E SE LIB NC VIS MIN 9999 BLU

Ora: 12:34 (10:34 UTC)

Previsione

Il bollettino è stato emesso 2 ore e 34 minuti fa, alle 08:00 UTC
Previsione valida dal 21 alle 09 UTC al 21 alle 18 UTC
Vento 6 kt da nord-est
Visibilità 10 km o più
nessuna nube inferiore a 1500 m e nessun cumulonembo
Temporaneamente
dal 21 alle 12 UTC al 21 alle 16 UTC
Vento 8 kt da ovest/sud-ovest
Visibilità 10 km o più
Poco nuvoloso ad un'altezza di 3000 ft

TAF: LIRV 210800Z 2109/2118 05006KT CAVOK TEMPO 2112/2116 25008KT 9999 FEW030

Osservazioni e previsioni meteorologiche di più di 4000 aeroporti (messaggi METAR e TAF).

Le stazioni disponibili sono rappresentate dai dischi gialli e rossi sulla carta.

Puntare il mouse per vedere il nome della stazione.

Clicca sopra per visualizzare le osservazioni e previsioni meteorologiche.

Per cambiare la mappa : fare clic sui pulsanti verdi con una croce nera per ingrandire, il pulsante verde con un trattino per diminuire, o sulla freccia verde per le mappe adiacenti.


METAR-TAF: